sensor_id;sensor_type;location;lat;lon;timestamp;P1;durP1;ratioP1;P2;durP2;ratioP2
75016;SDS011;63577;39.766;2.720;2023-03-23T00:01:08;2.60;;;1.00;;
75016;SDS011;63577;39.766;2.720;2023-03-23T00:03:38;3.10;;;1.20;;
75016;SDS011;63577;39.766;2.720;2023-03-23T00:06:03;3.40;;;1.00;;
75016;SDS011;63577;39.766;2.720;2023-03-23T00:08:33;3.70;;;1.30;;
75016;SDS011;63577;39.766;2.720;2023-03-23T00:10:58;3.10;;;1.20;;
75016;SDS011;63577;39.766;2.720;2023-03-23T00:13:26;2.60;;;1.10;;
75016;SDS011;63577;39.766;2.720;2023-03-23T00:15:52;3.60;;;1.10;;
75016;SDS011;63577;39.766;2.720;2023-03-23T00:18:21;3.20;;;1.20;;
75016;SDS011;63577;39.766;2.720;2023-03-23T00:20:50;2.90;;;1.30;;
75016;SDS011;63577;39.766;2.720;2023-03-23T00:23:19;3.80;;;1.40;;
75016;SDS011;63577;39.766;2.720;2023-03-23T00:25:49;3.50;;;1.40;;
75016;SDS011;63577;39.766;2.720;2023-03-23T00:28:15;3.60;;;1.20;;
75016;SDS011;63577;39.766;2.720;2023-03-23T00:30:41;2.70;;;1.00;;
75016;SDS011;63577;39.766;2.720;2023-03-23T00:33:09;2.80;;;1.00;;
75016;SDS011;63577;39.766;2.720;2023-03-23T00:35:38;4.10;;;1.00;;
75016;SDS011;63577;39.766;2.720;2023-03-23T00:38:03;2.90;;;1.10;;
75016;SDS011;63577;39.766;2.720;2023-03-23T00:40:29;3.00;;;1.10;;
75016;SDS011;63577;39.766;2.720;2023-03-23T00:42:56;4.30;;;0.90;;
75016;SDS011;63577;39.766;2.720;2023-03-23T00:45:21;3.20;;;1.10;;
75016;SDS011;63577;39.766;2.720;2023-03-23T00:47:49;2.90;;;1.00;;
75016;SDS011;63577;39.766;2.720;2023-03-23T00:50:16;2.90;;;0.90;;
75016;SDS011;63577;39.766;2.720;2023-03-23T00:52:43;4.00;;;1.20;;
75016;SDS011;63577;39.766;2.720;2023-03-23T00:55:08;2.80;;;1.10;;
75016;SDS011;63577;39.766;2.720;2023-03-23T00:57:34;3.40;;;1.10;;
75016;SDS011;63577;39.766;2.720;2023-03-23T01:00:00;2.70;;;1.10;;
75016;SDS011;63577;39.766;2.720;2023-03-23T01:02:25;2.60;;;1.10;;
75016;SDS011;63577;39.766;2.720;2023-03-23T01:04:51;2.70;;;1.20;;
75016;SDS011;63577;39.766;2.720;2023-03-23T01:07:20;3.50;;;1.10;;
75016;SDS011;63577;39.766;2.720;2023-03-23T01:09:48;2.70;;;1.00;;
75016;SDS011;63577;39.766;2.720;2023-03-23T01:12:14;3.10;;;1.20;;
75016;SDS011;63577;39.766;2.720;2023-03-23T01:14:40;3.20;;;1.10;;
75016;SDS011;63577;39.766;2.720;2023-03-23T01:17:06;4.10;;;1.00;;
75016;SDS011;63577;39.766;2.720;2023-03-23T01:19:32;3.40;;;1.10;;
75016;SDS011;63577;39.766;2.720;2023-03-23T01:21:57;2.90;;;1.10;;
75016;SDS011;63577;39.766;2.720;2023-03-23T01:24:22;3.50;;;1.20;;
75016;SDS011;63577;39.766;2.720;2023-03-23T01:26:48;3.10;;;1.10;;
75016;SDS011;63577;39.766;2.720;2023-03-23T01:29:13;3.20;;;1.10;;
75016;SDS011;63577;39.766;2.720;2023-03-23T01:31:38;3.30;;;1.30;;
75016;SDS011;63577;39.766;2.720;2023-03-23T01:34:04;3.30;;;0.90;;
75016;SDS011;63577;39.766;2.720;2023-03-23T01:36:30;3.30;;;1.20;;
75016;SDS011;63577;39.766;2.720;2023-03-23T01:38:58;3.00;;;1.20;;
75016;SDS011;63577;39.766;2.720;2023-03-23T01:41:23;3.70;;;1.00;;
75016;SDS011;63577;39.766;2.720;2023-03-23T01:44:06;4.60;;;1.30;;
75016;SDS011;63577;39.766;2.720;2023-03-23T01:46:33;5.80;;;1.20;;
75016;SDS011;63577;39.766;2.720;2023-03-23T01:49:03;3.10;;;1.10;;
75016;SDS011;63577;39.766;2.720;2023-03-23T01:51:33;3.10;;;1.20;;
75016;SDS011;63577;39.766;2.720;2023-03-23T01:54:00;3.00;;;1.20;;
75016;SDS011;63577;39.766;2.720;2023-03-23T01:56:29;3.90;;;1.00;;
75016;SDS011;63577;39.766;2.720;2023-03-23T01:58:58;4.20;;;1.20;;
75016;SDS011;63577;39.766;2.720;2023-03-23T02:01:23;3.00;;;1.00;;
75016;SDS011;63577;39.766;2.720;2023-03-23T02:03:50;2.80;;;1.10;;
75016;SDS011;63577;39.766;2.720;2023-03-23T02:06:16;2.70;;;1.00;;
75016;SDS011;63577;39.766;2.720;2023-03-23T02:08:42;3.40;;;1.00;;
75016;SDS011;63577;39.766;2.720;2023-03-23T02:11:19;2.90;;;1.10;;
75016;SDS011;63577;39.766;2.720;2023-03-23T02:13:45;2.90;;;0.90;;
75016;SDS011;63577;39.766;2.720;2023-03-23T02:36:19;4.20;;;1.10;;
75016;SDS011;63577;39.766;2.720;2023-03-23T02:41:16;3.80;;;0.90;;
75016;SDS011;63577;39.766;2.720;2023-03-23T02:43:43;2.70;;;0.90;;
75016;SDS011;63577;39.766;2.720;2023-03-23T02:46:09;3.20;;;0.90;;
75016;SDS011;63577;39.766;2.720;2023-03-23T02:48:35;3.30;;;1.00;;
75016;SDS011;63577;39.766;2.720;2023-03-23T02:51:01;2.60;;;0.80;;
75016;SDS011;63577;39.766;2.720;2023-03-23T02:53:27;2.70;;;1.00;;
75016;SDS011;63577;39.766;2.720;2023-03-23T02:55:54;3.00;;;1.10;;
75016;SDS011;63577;39.766;2.720;2023-03-23T02:58:20;3.60;;;0.90;;
75016;SDS011;63577;39.766;2.720;2023-03-23T03:00:48;3.60;;;1.00;;
75016;SDS011;63577;39.766;2.720;2023-03-23T03:03:15;2.60;;;1.10;;
75016;SDS011;63577;39.766;2.720;2023-03-23T03:05:54;2.40;;;0.90;;
75016;SDS011;63577;39.766;2.720;2023-03-23T03:11:09;2.30;;;0.60;;
75016;SDS011;63577;39.766;2.720;2023-03-23T03:13:53;1.80;;;0.50;;
75016;SDS011;63577;39.766;2.720;2023-03-23T03:16:26;2.60;;;1.00;;
75016;SDS011;63577;39.766;2.720;2023-03-23T03:19:01;3.80;;;0.80;;
75016;SDS011;63577;39.766;2.720;2023-03-23T03:21:28;3.70;;;0.80;;
75016;SDS011;63577;39.766;2.720;2023-03-23T03:23:55;3.40;;;1.00;;
75016;SDS011;63577;39.766;2.720;2023-03-23T03:26:24;2.40;;;0.80;;
75016;SDS011;63577;39.766;2.720;2023-03-23T03:28:51;3.30;;;1.10;;
75016;SDS011;63577;39.766;2.720;2023-03-23T03:31:19;4.30;;;0.90;;
75016;SDS011;63577;39.766;2.720;2023-03-23T03:33:45;2.30;;;0.90;;
75016;SDS011;63577;39.766;2.720;2023-03-23T03:36:15;3.30;;;0.90;;
75016;SDS011;63577;39.766;2.720;2023-03-23T03:38:42;2.80;;;0.90;;
75016;SDS011;63577;39.766;2.720;2023-03-23T03:41:08;4.10;;;0.90;;
75016;SDS011;63577;39.766;2.720;2023-03-23T03:43:33;2.80;;;0.90;;
75016;SDS011;63577;39.766;2.720;2023-03-23T03:46:00;3.40;;;1.10;;
75016;SDS011;63577;39.766;2.720;2023-03-23T03:48:25;4.50;;;1.00;;
75016;SDS011;63577;39.766;2.720;2023-03-23T03:50:51;2.50;;;1.00;;
75016;SDS011;63577;39.766;2.720;2023-03-23T03:53:17;3.50;;;1.00;;
75016;SDS011;63577;39.766;2.720;2023-03-23T03:55:42;2.40;;;0.80;;
75016;SDS011;63577;39.766;2.720;2023-03-23T03:58:13;5.60;;;1.10;;
75016;SDS011;63577;39.766;2.720;2023-03-23T04:00:38;2.50;;;0.90;;
75016;SDS011;63577;39.766;2.720;2023-03-23T04:03:04;2.70;;;1.20;;
75016;SDS011;63577;39.766;2.720;2023-03-23T04:05:29;2.50;;;1.00;;
75016;SDS011;63577;39.766;2.720;2023-03-23T04:07:55;3.80;;;0.80;;
75016;SDS011;63577;39.766;2.720;2023-03-23T04:10:26;2.50;;;1.00;;
75016;SDS011;63577;39.766;2.720;2023-03-23T04:12:52;2.70;;;0.80;;
75016;SDS011;63577;39.766;2.720;2023-03-23T04:15:17;3.10;;;1.00;;
75016;SDS011;63577;39.766;2.720;2023-03-23T04:17:43;2.50;;;0.80;;
75016;SDS011;63577;39.766;2.720;2023-03-23T04:20:09;2.60;;;0.90;;
75016;SDS011;63577;39.766;2.720;2023-03-23T04:22:43;2.60;;;0.80;;
75016;SDS011;63577;39.766;2.720;2023-03-23T04:25:09;2.60;;;0.80;;
75016;SDS011;63577;39.766;2.720;2023-03-23T04:27:36;2.70;;;1.00;;
75016;SDS011;63577;39.766;2.720;2023-03-23T04:30:01;3.10;;;1.00;;
75016;SDS011;63577;39.766;2.720;2023-03-23T04:32:28;2.80;;;0.80;;
75016;SDS011;63577;39.766;2.720;2023-03-23T04:34:56;4.40;;;1.00;;
75016;SDS011;63577;39.766;2.720;2023-03-23T04:37:25;2.50;;;0.80;;
75016;SDS011;63577;39.766;2.720;2023-03-23T04:39:54;2.90;;;1.10;;
75016;SDS011;63577;39.766;2.720;2023-03-23T04:42:28;2.70;;;1.00;;
75016;SDS011;63577;39.766;2.720;2023-03-23T04:44:54;2.80;;;0.90;;
75016;SDS011;63577;39.766;2.720;2023-03-23T04:47:20;4.50;;;1.00;;
75016;SDS011;63577;39.766;2.720;2023-03-23T04:49:46;3.30;;;0.90;;
75016;SDS011;63577;39.766;2.720;2023-03-23T04:52:11;3.40;;;1.10;;
75016;SDS011;63577;39.766;2.720;2023-03-23T04:54:36;2.90;;;0.90;;
75016;SDS011;63577;39.766;2.720;2023-03-23T04:57:03;3.20;;;0.80;;
75016;SDS011;63577;39.766;2.720;2023-03-23T04:59:28;2.40;;;0.80;;
75016;SDS011;63577;39.766;2.720;2023-03-23T05:01:56;2.90;;;1.00;;
75016;SDS011;63577;39.766;2.720;2023-03-23T05:04:22;3.20;;;0.80;;
75016;SDS011;63577;39.766;2.720;2023-03-23T05:06:47;3.50;;;0.90;;
75016;SDS011;63577;39.766;2.720;2023-03-23T05:09:13;3.20;;;0.90;;
75016;SDS011;63577;39.766;2.720;2023-03-23T05:11:39;3.00;;;1.00;;
75016;SDS011;63577;39.766;2.720;2023-03-23T05:14:05;4.60;;;0.90;;
75016;SDS011;63577;39.766;2.720;2023-03-23T05:16:31;2.90;;;0.90;;
75016;SDS011;63577;39.766;2.720;2023-03-23T05:18:56;2.40;;;0.90;;
75016;SDS011;63577;39.766;2.720;2023-03-23T05:21:24;2.80;;;0.90;;
75016;SDS011;63577;39.766;2.720;2023-03-23T05:23:51;3.10;;;1.00;;
75016;SDS011;63577;39.766;2.720;2023-03-23T05:26:22;2.30;;;0.90;;
75016;SDS011;63577;39.766;2.720;2023-03-23T05:28:57;3.50;;;1.00;;
75016;SDS011;63577;39.766;2.720;2023-03-23T05:31:24;3.20;;;1.00;;
75016;SDS011;63577;39.766;2.720;2023-03-23T05:33:50;2.70;;;0.90;;
75016;SDS011;63577;39.766;2.720;2023-03-23T05:36:15;2.10;;;0.80;;
75016;SDS011;63577;39.766;2.720;2023-03-23T05:38:41;3.20;;;0.90;;
75016;SDS011;63577;39.766;2.720;2023-03-23T05:41:12;2.30;;;0.90;;
75016;SDS011;63577;39.766;2.720;2023-03-23T05:43:38;2.60;;;0.90;;
75016;SDS011;63577;39.766;2.720;2023-03-23T05:46:04;3.50;;;0.90;;
75016;SDS011;63577;39.766;2.720;2023-03-23T05:48:29;2.80;;;1.00;;
75016;SDS011;63577;39.766;2.720;2023-03-23T05:50:54;3.80;;;0.90;;
75016;SDS011;63577;39.766;2.720;2023-03-23T05:53:21;2.80;;;0.80;;
75016;SDS011;63577;39.766;2.720;2023-03-23T05:55:46;3.90;;;1.10;;
75016;SDS011;63577;39.766;2.720;2023-03-23T05:58:11;3.30;;;0.90;;
75016;SDS011;63577;39.766;2.720;2023-03-23T06:00:37;4.00;;;1.20;;
75016;SDS011;63577;39.766;2.720;2023-03-23T06:03:02;2.70;;;0.80;;
75016;SDS011;63577;39.766;2.720;2023-03-23T06:05:28;3.10;;;1.10;;
75016;SDS011;63577;39.766;2.720;2023-03-23T06:07:54;3.10;;;1.00;;
75016;SDS011;63577;39.766;2.720;2023-03-23T06:10:19;3.60;;;1.00;;
75016;SDS011;63577;39.766;2.720;2023-03-23T06:12:45;3.20;;;1.10;;
75016;SDS011;63577;39.766;2.720;2023-03-23T06:15:10;2.90;;;0.90;;
75016;SDS011;63577;39.766;2.720;2023-03-23T06:17:36;3.50;;;0.80;;
75016;SDS011;63577;39.766;2.720;2023-03-23T06:20:05;3.30;;;1.00;;
75016;SDS011;63577;39.766;2.720;2023-03-23T06:22:35;2.20;;;0.80;;
75016;SDS011;63577;39.766;2.720;2023-03-23T06:25:00;2.70;;;0.90;;
75016;SDS011;63577;39.766;2.720;2023-03-23T06:27:26;2.60;;;1.10;;
75016;SDS011;63577;39.766;2.720;2023-03-23T06:29:52;4.40;;;1.00;;
75016;SDS011;63577;39.766;2.720;2023-03-23T06:32:17;3.40;;;0.90;;
75016;SDS011;63577;39.766;2.720;2023-03-23T06:34:42;5.30;;;1.00;;
75016;SDS011;63577;39.766;2.720;2023-03-23T06:37:09;3.30;;;0.90;;
75016;SDS011;63577;39.766;2.720;2023-03-23T06:39:35;3.20;;;1.40;;
75016;SDS011;63577;39.766;2.720;2023-03-23T06:42:03;2.80;;;1.00;;
75016;SDS011;63577;39.766;2.720;2023-03-23T06:44:29;4.00;;;1.10;;
75016;SDS011;63577;39.766;2.720;2023-03-23T06:46:54;3.10;;;0.90;;
75016;SDS011;63577;39.766;2.720;2023-03-23T06:49:20;3.20;;;1.10;;
75016;SDS011;63577;39.766;2.720;2023-03-23T06:51:45;3.30;;;1.10;;
75016;SDS011;63577;39.766;2.720;2023-03-23T06:54:10;3.10;;;0.90;;
75016;SDS011;63577;39.766;2.720;2023-03-23T06:56:36;3.40;;;0.90;;
75016;SDS011;63577;39.766;2.720;2023-03-23T06:59:01;3.20;;;0.90;;
75016;SDS011;63577;39.766;2.720;2023-03-23T07:01:26;5.60;;;1.00;;
75016;SDS011;63577;39.766;2.720;2023-03-23T07:03:53;3.50;;;1.30;;
75016;SDS011;63577;39.766;2.720;2023-03-23T07:06:20;3.00;;;1.30;;
75016;SDS011;63577;39.766;2.720;2023-03-23T07:08:46;4.70;;;2.30;;
75016;SDS011;63577;39.766;2.720;2023-03-23T07:11:12;5.50;;;2.80;;
75016;SDS011;63577;39.766;2.720;2023-03-23T07:13:38;6.10;;;3.60;;
75016;SDS011;63577;39.766;2.720;2023-03-23T07:16:06;5.30;;;2.70;;
75016;SDS011;63577;39.766;2.720;2023-03-23T07:18:32;6.40;;;2.90;;
75016;SDS011;63577;39.766;2.720;2023-03-23T07:20:57;6.40;;;3.50;;
75016;SDS011;63577;39.766;2.720;2023-03-23T07:23:22;8.70;;;5.40;;
75016;SDS011;63577;39.766;2.720;2023-03-23T07:25:48;9.70;;;5.60;;
75016;SDS011;63577;39.766;2.720;2023-03-23T07:28:14;8.80;;;5.80;;
75016;SDS011;63577;39.766;2.720;2023-03-23T07:30:39;9.80;;;5.60;;
75016;SDS011;63577;39.766;2.720;2023-03-23T07:33:05;11.40;;;5.50;;
75016;SDS011;63577;39.766;2.720;2023-03-23T07:35:31;9.20;;;5.90;;
75016;SDS011;63577;39.766;2.720;2023-03-23T07:37:56;6.10;;;4.00;;
75016;SDS011;63577;39.766;2.720;2023-03-23T07:40:22;7.90;;;3.80;;
75016;SDS011;63577;39.766;2.720;2023-03-23T07:42:51;7.70;;;3.60;;
75016;SDS011;63577;39.766;2.720;2023-03-23T07:45:17;5.80;;;3.60;;
75016;SDS011;63577;39.766;2.720;2023-03-23T07:47:42;6.20;;;2.90;;
75016;SDS011;63577;39.766;2.720;2023-03-23T07:50:08;4.40;;;2.50;;
75016;SDS011;63577;39.766;2.720;2023-03-23T07:52:34;4.60;;;2.40;;
75016;SDS011;63577;39.766;2.720;2023-03-23T07:54:59;4.40;;;2.20;;
75016;SDS011;63577;39.766;2.720;2023-03-23T07:57:27;5.20;;;2.30;;
75016;SDS011;63577;39.766;2.720;2023-03-23T07:59:53;7.30;;;5.70;;
75016;SDS011;63577;39.766;2.720;2023-03-23T08:02:18;6.80;;;4.60;;
75016;SDS011;63577;39.766;2.720;2023-03-23T08:04:44;3.40;;;1.80;;
75016;SDS011;63577;39.766;2.720;2023-03-23T08:07:10;6.30;;;4.70;;
75016;SDS011;63577;39.766;2.720;2023-03-23T08:09:37;7.90;;;5.80;;
75016;SDS011;63577;39.766;2.720;2023-03-23T08:12:03;8.10;;;6.40;;
75016;SDS011;63577;39.766;2.720;2023-03-23T08:14:29;9.60;;;7.10;;
75016;SDS011;63577;39.766;2.720;2023-03-23T08:16:55;16.20;;;11.50;;
75016;SDS011;63577;39.766;2.720;2023-03-23T08:19:21;11.00;;;7.80;;
75016;SDS011;63577;39.766;2.720;2023-03-23T08:21:47;11.40;;;7.80;;
75016;SDS011;63577;39.766;2.720;2023-03-23T08:24:13;8.40;;;5.80;;
75016;SDS011;63577;39.766;2.720;2023-03-23T08:26:39;8.20;;;5.90;;
75016;SDS011;63577;39.766;2.720;2023-03-23T08:29:04;9.10;;;6.60;;
75016;SDS011;63577;39.766;2.720;2023-03-23T08:31:31;4.70;;;2.30;;
75016;SDS011;63577;39.766;2.720;2023-03-23T08:33:59;7.50;;;4.10;;
75016;SDS011;63577;39.766;2.720;2023-03-23T08:36:26;8.20;;;5.50;;
75016;SDS011;63577;39.766;2.720;2023-03-23T08:38:52;9.10;;;5.70;;
75016;SDS011;63577;39.766;2.720;2023-03-23T08:41:18;9.30;;;4.90;;
75016;SDS011;63577;39.766;2.720;2023-03-23T08:43:43;6.50;;;4.20;;
75016;SDS011;63577;39.766;2.720;2023-03-23T08:46:09;7.00;;;4.50;;
75016;SDS011;63577;39.766;2.720;2023-03-23T08:48:36;7.40;;;4.90;;
75016;SDS011;63577;39.766;2.720;2023-03-23T08:51:05;6.60;;;3.20;;
75016;SDS011;63577;39.766;2.720;2023-03-23T08:53:32;4.80;;;2.60;;
75016;SDS011;63577;39.766;2.720;2023-03-23T08:56:04;7.10;;;4.40;;
75016;SDS011;63577;39.766;2.720;2023-03-23T08:58:30;6.30;;;4.40;;
75016;SDS011;63577;39.766;2.720;2023-03-23T09:00:55;7.60;;;5.40;;
75016;SDS011;63577;39.766;2.720;2023-03-23T09:03:21;6.80;;;4.30;;
75016;SDS011;63577;39.766;2.720;2023-03-23T09:05:46;6.00;;;3.50;;
75016;SDS011;63577;39.766;2.720;2023-03-23T09:08:11;7.20;;;4.30;;
75016;SDS011;63577;39.766;2.720;2023-03-23T09:10:37;6.40;;;3.00;;
75016;SDS011;63577;39.766;2.720;2023-03-23T09:13:04;4.90;;;2.70;;
75016;SDS011;63577;39.766;2.720;2023-03-23T09:15:30;3.70;;;1.40;;
75016;SDS011;63577;39.766;2.720;2023-03-23T09:17:56;3.80;;;1.60;;
75016;SDS011;63577;39.766;2.720;2023-03-23T09:20:23;5.70;;;3.70;;
75016;SDS011;63577;39.766;2.720;2023-03-23T09:22:51;5.10;;;2.00;;
75016;SDS011;63577;39.766;2.720;2023-03-23T09:25:18;5.90;;;2.20;;
75016;SDS011;63577;39.766;2.720;2023-03-23T09:27:46;3.90;;;2.00;;
75016;SDS011;63577;39.766;2.720;2023-03-23T09:30:14;4.30;;;2.20;;
75016;SDS011;63577;39.766;2.720;2023-03-23T09:32:39;4.00;;;1.40;;
75016;SDS011;63577;39.766;2.720;2023-03-23T09:35:06;3.40;;;1.20;;
75016;SDS011;63577;39.766;2.720;2023-03-23T09:37:37;3.50;;;1.30;;
75016;SDS011;63577;39.766;2.720;2023-03-23T09:40:03;3.90;;;1.10;;
75016;SDS011;63577;39.766;2.720;2023-03-23T09:42:43;3.20;;;1.20;;
75016;SDS011;63577;39.766;2.720;2023-03-23T09:45:13;2.70;;;1.00;;
75016;SDS011;63577;39.766;2.720;2023-03-23T09:47:52;3.50;;;1.60;;
75016;SDS011;63577;39.766;2.720;2023-03-23T09:50:21;3.30;;;1.30;;
75016;SDS011;63577;39.766;2.720;2023-03-23T09:52:55;3.50;;;1.80;;
75016;SDS011;63577;39.766;2.720;2023-03-23T09:55:22;3.00;;;1.10;;
75016;SDS011;63577;39.766;2.720;2023-03-23T10:00:51;3.20;;;1.00;;
75016;SDS011;63577;39.766;2.720;2023-03-23T10:03:18;4.00;;;1.30;;
75016;SDS011;63577;39.766;2.720;2023-03-23T10:05:48;2.50;;;0.90;;
75016;SDS011;63577;39.766;2.720;2023-03-23T10:08:16;2.80;;;1.00;;
75016;SDS011;63577;39.766;2.720;2023-03-23T10:16:12;3.40;;;0.60;;
75016;SDS011;63577;39.766;2.720;2023-03-23T10:21:06;2.40;;;0.80;;
75016;SDS011;63577;39.766;2.720;2023-03-23T10:23:46;2.40;;;0.70;;
75016;SDS011;63577;39.766;2.720;2023-03-23T10:28:58;2.50;;;0.70;;
75016;SDS011;63577;39.766;2.720;2023-03-23T10:31:28;2.40;;;0.80;;
75016;SDS011;63577;39.766;2.720;2023-03-23T10:33:56;3.00;;;1.00;;
75016;SDS011;63577;39.766;2.720;2023-03-23T10:36:27;3.40;;;1.00;;
75016;SDS011;63577;39.766;2.720;2023-03-23T10:41:37;3.10;;;0.70;;
75016;SDS011;63577;39.766;2.720;2023-03-23T10:44:15;2.00;;;0.70;;
75016;SDS011;63577;39.766;2.720;2023-03-23T10:54:38;3.80;;;1.00;;
75016;SDS011;63577;39.766;2.720;2023-03-23T11:00:23;2.10;;;0.60;;
75016;SDS011;63577;39.766;2.720;2023-03-23T11:02:59;2.50;;;0.80;;
75016;SDS011;63577;39.766;2.720;2023-03-23T11:05:26;4.20;;;1.00;;
75016;SDS011;63577;39.766;2.720;2023-03-23T11:07:54;2.60;;;0.70;;
75016;SDS011;63577;39.766;2.720;2023-03-23T11:10:21;4.20;;;0.80;;
75016;SDS011;63577;39.766;2.720;2023-03-23T11:12:48;2.90;;;0.80;;
75016;SDS011;63577;39.766;2.720;2023-03-23T11:16:00;3.30;;;1.00;;
75016;SDS011;63577;39.766;2.720;2023-03-23T11:18:04;2.60;;;0.60;;
75016;SDS011;63577;39.766;2.720;2023-03-23T11:20:32;2.30;;;0.70;;
75016;SDS011;63577;39.766;2.720;2023-03-23T11:23:01;3.00;;;0.80;;
75016;SDS011;63577;39.766;2.720;2023-03-23T11:25:26;2.50;;;0.80;;
75016;SDS011;63577;39.766;2.720;2023-03-23T11:27:52;3.40;;;0.80;;
75016;SDS011;63577;39.766;2.720;2023-03-23T11:32:43;2.90;;;0.70;;
75016;SDS011;63577;39.766;2.720;2023-03-23T11:35:22;4.00;;;1.00;;
75016;SDS011;63577;39.766;2.720;2023-03-23T11:37:49;2.50;;;0.80;;
75016;SDS011;63577;39.766;2.720;2023-03-23T11:40:17;3.30;;;1.30;;
75016;SDS011;63577;39.766;2.720;2023-03-23T11:42:45;2.70;;;0.70;;
75016;SDS011;63577;39.766;2.720;2023-03-23T11:53:34;4.80;;;0.70;;
75016;SDS011;63577;39.766;2.720;2023-03-23T11:58:26;4.30;;;0.80;;
75016;SDS011;63577;39.766;2.720;2023-03-23T12:03:23;2.80;;;0.70;;
75016;SDS011;63577;39.766;2.720;2023-03-23T12:05:55;5.40;;;0.80;;
75016;SDS011;63577;39.766;2.720;2023-03-23T12:11:24;5.10;;;0.90;;
75016;SDS011;63577;39.766;2.720;2023-03-23T12:26:46;3.10;;;0.80;;
75016;SDS011;63577;39.766;2.720;2023-03-23T12:39:29;3.40;;;0.90;;
75016;SDS011;63577;39.766;2.720;2023-03-23T12:44:24;6.30;;;1.70;;
75016;SDS011;63577;39.766;2.720;2023-03-23T12:51:57;2.10;;;0.70;;
75016;SDS011;63577;39.766;2.720;2023-03-23T12:56:58;2.70;;;0.80;;
75016;SDS011;63577;39.766;2.720;2023-03-23T13:02:14;2.10;;;0.70;;
75016;SDS011;63577;39.766;2.720;2023-03-23T13:04:45;2.10;;;0.50;;
75016;SDS011;63577;39.766;2.720;2023-03-23T13:07:16;9.50;;;0.80;;
75016;SDS011;63577;39.766;2.720;2023-03-23T13:12:08;2.60;;;0.60;;
75016;SDS011;63577;39.766;2.720;2023-03-23T13:14:39;2.90;;;0.60;;
75016;SDS011;63577;39.766;2.720;2023-03-23T13:17:13;2.60;;;0.60;;
75016;SDS011;63577;39.766;2.720;2023-03-23T13:22:26;8.10;;;0.90;;
75016;SDS011;63577;39.766;2.720;2023-03-23T13:24:54;2.00;;;0.70;;
75016;SDS011;63577;39.766;2.720;2023-03-23T13:27:24;2.60;;;0.80;;
75016;SDS011;63577;39.766;2.720;2023-03-23T13:29:53;3.90;;;0.80;;
75016;SDS011;63577;39.766;2.720;2023-03-23T13:32:18;1.90;;;0.80;;
75016;SDS011;63577;39.766;2.720;2023-03-23T13:34:46;4.30;;;0.70;;
75016;SDS011;63577;39.766;2.720;2023-03-23T13:37:20;3.60;;;0.80;;
75016;SDS011;63577;39.766;2.720;2023-03-23T13:47:25;3.70;;;0.70;;
75016;SDS011;63577;39.766;2.720;2023-03-23T13:52:23;3.30;;;0.80;;
75016;SDS011;63577;39.766;2.720;2023-03-23T13:54:49;2.80;;;1.00;;
75016;SDS011;63577;39.766;2.720;2023-03-23T13:57:19;4.90;;;0.90;;
75016;SDS011;63577;39.766;2.720;2023-03-23T13:59:48;2.70;;;0.60;;
75016;SDS011;63577;39.766;2.720;2023-03-23T14:02:32;2.90;;;0.70;;
75016;SDS011;63577;39.766;2.720;2023-03-23T14:05:08;2.90;;;0.70;;
75016;SDS011;63577;39.766;2.720;2023-03-23T14:07:50;4.70;;;1.00;;
75016;SDS011;63577;39.766;2.720;2023-03-23T14:10:15;3.00;;;0.90;;
75016;SDS011;63577;39.766;2.720;2023-03-23T14:12:42;3.30;;;0.80;;
75016;SDS011;63577;39.766;2.720;2023-03-23T14:15:14;3.00;;;0.80;;
75016;SDS011;63577;39.766;2.720;2023-03-23T14:17:43;3.20;;;1.10;;
75016;SDS011;63577;39.766;2.720;2023-03-23T14:20:15;3.60;;;0.90;;
75016;SDS011;63577;39.766;2.720;2023-03-23T14:22:44;3.80;;;0.80;;
75016;SDS011;63577;39.766;2.720;2023-03-23T14:25:17;3.20;;;0.60;;
75016;SDS011;63577;39.766;2.720;2023-03-23T14:27:44;2.60;;;0.80;;
75016;SDS011;63577;39.766;2.720;2023-03-23T14:30:21;3.80;;;0.80;;
75016;SDS011;63577;39.766;2.720;2023-03-23T14:32:46;6.50;;;0.80;;
75016;SDS011;63577;39.766;2.720;2023-03-23T14:35:15;2.30;;;0.70;;
75016;SDS011;63577;39.766;2.720;2023-03-23T14:37:42;2.40;;;0.70;;
75016;SDS011;63577;39.766;2.720;2023-03-23T14:40:10;1.70;;;0.50;;
75016;SDS011;63577;39.766;2.720;2023-03-23T14:42:37;3.70;;;1.00;;
75016;SDS011;63577;39.766;2.720;2023-03-23T14:45:03;2.40;;;0.80;;
75016;SDS011;63577;39.766;2.720;2023-03-23T14:47:30;2.40;;;0.60;;
75016;SDS011;63577;39.766;2.720;2023-03-23T14:49:57;2.40;;;0.80;;
75016;SDS011;63577;39.766;2.720;2023-03-23T14:52:25;1.70;;;0.60;;
75016;SDS011;63577;39.766;2.720;2023-03-23T14:54:51;2.60;;;0.80;;
75016;SDS011;63577;39.766;2.720;2023-03-23T14:57:18;2.50;;;0.70;;
75016;SDS011;63577;39.766;2.720;2023-03-23T14:59:45;2.70;;;0.70;;
75016;SDS011;63577;39.766;2.720;2023-03-23T15:02:24;2.20;;;0.70;;
75016;SDS011;63577;39.766;2.720;2023-03-23T15:05:14;2.00;;;0.70;;
75016;SDS011;63577;39.766;2.720;2023-03-23T15:07:37;2.30;;;0.60;;
75016;SDS011;63577;39.766;2.720;2023-03-23T15:10:07;2.30;;;0.60;;
75016;SDS011;63577;39.766;2.720;2023-03-23T15:12:33;2.10;;;0.70;;
75016;SDS011;63577;39.766;2.720;2023-03-23T15:15:01;2.50;;;0.70;;
75016;SDS011;63577;39.766;2.720;2023-03-23T15:17:36;2.40;;;0.70;;
75016;SDS011;63577;39.766;2.720;2023-03-23T15:20:09;1.90;;;0.60;;
75016;SDS011;63577;39.766;2.720;2023-03-23T15:22:35;2.90;;;0.80;;
75016;SDS011;63577;39.766;2.720;2023-03-23T15:25:02;2.80;;;0.70;;
75016;SDS011;63577;39.766;2.720;2023-03-23T15:27:29;4.00;;;0.70;;
75016;SDS011;63577;39.766;2.720;2023-03-23T15:29:56;2.30;;;0.80;;
75016;SDS011;63577;39.766;2.720;2023-03-23T15:32:29;4.50;;;0.70;;
75016;SDS011;63577;39.766;2.720;2023-03-23T15:34:55;2.60;;;0.80;;
75016;SDS011;63577;39.766;2.720;2023-03-23T15:37:28;3.90;;;0.90;;
75016;SDS011;63577;39.766;2.720;2023-03-23T15:39:54;2.90;;;0.70;;
75016;SDS011;63577;39.766;2.720;2023-03-23T15:42:27;2.50;;;0.70;;
75016;SDS011;63577;39.766;2.720;2023-03-23T15:45:35;3.00;;;0.80;;
75016;SDS011;63577;39.766;2.720;2023-03-23T15:52:35;3.30;;;0.90;;
75016;SDS011;63577;39.766;2.720;2023-03-23T15:55:00;2.70;;;0.80;;
75016;SDS011;63577;39.766;2.720;2023-03-23T15:57:26;2.90;;;0.70;;
75016;SDS011;63577;39.766;2.720;2023-03-23T15:59:51;3.20;;;0.70;;
75016;SDS011;63577;39.766;2.720;2023-03-23T16:02:21;2.70;;;0.70;;
75016;SDS011;63577;39.766;2.720;2023-03-23T16:04:48;2.60;;;0.90;;
75016;SDS011;63577;39.766;2.720;2023-03-23T16:07:14;3.00;;;0.90;;
75016;SDS011;63577;39.766;2.720;2023-03-23T16:09:40;3.40;;;0.70;;
75016;SDS011;63577;39.766;2.720;2023-03-23T16:12:10;3.50;;;0.90;;
75016;SDS011;63577;39.766;2.720;2023-03-23T16:14:37;3.70;;;0.80;;
75016;SDS011;63577;39.766;2.720;2023-03-23T16:17:03;2.00;;;0.50;;
75016;SDS011;63577;39.766;2.720;2023-03-23T16:19:28;3.30;;;0.80;;
75016;SDS011;63577;39.766;2.720;2023-03-23T16:21:53;4.10;;;0.70;;
75016;SDS011;63577;39.766;2.720;2023-03-23T16:24:18;2.30;;;0.70;;
75016;SDS011;63577;39.766;2.720;2023-03-23T16:26:44;2.90;;;0.60;;
75016;SDS011;63577;39.766;2.720;2023-03-23T16:29:11;2.20;;;0.70;;
75016;SDS011;63577;39.766;2.720;2023-03-23T16:31:37;2.20;;;0.60;;
75016;SDS011;63577;39.766;2.720;2023-03-23T16:34:02;3.90;;;0.70;;
75016;SDS011;63577;39.766;2.720;2023-03-23T16:36:28;2.50;;;0.80;;
75016;SDS011;63577;39.766;2.720;2023-03-23T16:38:53;2.40;;;0.60;;
75016;SDS011;63577;39.766;2.720;2023-03-23T16:41:18;4.60;;;1.10;;
75016;SDS011;63577;39.766;2.720;2023-03-23T16:43:44;5.00;;;0.80;;
75016;SDS011;63577;39.766;2.720;2023-03-23T16:46:10;3.20;;;0.80;;
75016;SDS011;63577;39.766;2.720;2023-03-23T16:48:36;3.10;;;0.80;;
75016;SDS011;63577;39.766;2.720;2023-03-23T16:51:01;2.30;;;0.70;;
75016;SDS011;63577;39.766;2.720;2023-03-23T16:53:26;3.40;;;0.80;;
75016;SDS011;63577;39.766;2.720;2023-03-23T16:55:52;4.00;;;1.10;;
75016;SDS011;63577;39.766;2.720;2023-03-23T16:58:17;3.20;;;0.80;;